Terminal Aerodrome Forecast
Issued by NWS Sioux Falls, SD

Home | Current Version | Previous Version | Graphics & Text | Print | Product List | Glossary On
Versions: 1 2 3 4 5 6 7 8 9 10 11 12 13 14 15 16 17 18
421
FTUS43 KFSD 152200 AAF
TAFFSD
TAF AMD
KFSD 152200Z 1522/1618 13010KT P6SM SCT020 OVC035
      TEMPO 1522/1523 6SM -SHRA BKN020 OVC050
     FM160500 12011KT P6SM SHRA OVC060
     FM161000 12005KT 5SM SHRA OVC008
     FM161200 10004KT 4SM -SHRA BR OVC008
     FM161600 07005KT 3SM -SHRA BR OVC010
     FM161700 36005KT 5SM -SHRA BR OVC015=

USA.gov is the U.S. government's official web portal to all federal, state and local government web resources and services.